createdAt,value
2022-09-23T00:01:28.357Z,4.1
2022-09-23T00:03:30.082Z,4.1
2022-09-23T00:05:31.617Z,4.1
2022-09-23T00:09:34.783Z,4.1
2022-09-23T00:11:36.416Z,4.1
2022-09-23T00:13:37.526Z,4.1
2022-09-23T00:15:39.031Z,4.1
2022-09-23T00:17:40.255Z,4.1
2022-09-23T00:21:44.197Z,4.1
2022-09-23T00:23:45.831Z,4.1
2022-09-23T00:25:47.704Z,4.1
2022-09-23T00:27:48.845Z,4.1
2022-09-23T00:29:50.135Z,4.1
2022-09-23T00:31:51.194Z,4.1
2022-09-23T00:35:54.237Z,4.1
2022-09-23T00:37:55.757Z,4.1
2022-09-23T00:41:58.912Z,4.1
2022-09-23T00:44:00.594Z,4.1
2022-09-23T00:46:02.278Z,4.1
2022-09-23T00:48:03.456Z,4.09
2022-09-23T00:52:06.229Z,4.09
2022-09-23T00:54:07.962Z,4.1
2022-09-23T00:56:09.424Z,4.09
2022-09-23T00:58:10.487Z,4.09
2022-09-23T01:00:11.721Z,4.09
2022-09-23T01:04:14.803Z,4.09
2022-09-23T01:06:15.935Z,4.09
2022-09-23T01:08:17.766Z,4.09
2022-09-23T01:10:19.088Z,4.09
2022-09-23T01:12:20.373Z,4.09
2022-09-23T01:14:22.000Z,4.09
2022-09-23T01:18:24.946Z,4.09
2022-09-23T01:20:26.206Z,4.09
2022-09-23T01:22:27.380Z,4.09
2022-09-23T01:24:28.562Z,4.09
2022-09-23T01:26:30.135Z,4.09
2022-09-23T01:28:32.059Z,4.09
2022-09-23T01:30:33.612Z,4.09
2022-09-23T01:34:37.079Z,4.08
2022-09-23T01:36:38.291Z,4.09
2022-09-23T01:40:41.192Z,4.09
2022-09-23T01:42:42.719Z,4.09
2022-09-23T01:44:44.100Z,4.09
2022-09-23T01:46:45.288Z,4.08
2022-09-23T01:50:48.409Z,4.09
2022-09-23T01:52:50.350Z,4.08
2022-09-23T01:54:52.086Z,4.08
2022-09-23T01:56:53.768Z,4.08
2022-09-23T02:00:57.177Z,4.08
2022-09-23T02:02:59.107Z,4.08
2022-09-23T02:05:00.451Z,4.08
2022-09-23T02:07:02.076Z,4.08
2022-09-23T02:09:03.477Z,4.08
2022-09-23T02:11:04.569Z,4.08
2022-09-23T02:13:05.805Z,4.08
2022-09-23T02:17:08.865Z,4.08
2022-09-23T02:19:10.122Z,4.08
2022-09-23T02:23:13.125Z,4.08
2022-09-23T02:25:14.503Z,4.08
2022-09-23T02:27:16.144Z,4.08
2022-09-23T02:29:17.952Z,4.08
2022-09-23T02:33:21.350Z,4.08
2022-09-23T02:35:23.545Z,4.08
2022-09-23T02:37:24.279Z,4.08
2022-09-23T02:39:26.206Z,4.08
2022-09-23T02:43:29.096Z,4.08
2022-09-23T02:45:30.245Z,4.08
2022-09-23T02:47:31.486Z,4.08
2022-09-23T02:49:33.325Z,4.08
2022-09-23T02:51:34.998Z,4.07
2022-09-23T02:53:36.919Z,4.08
2022-09-23T02:55:38.713Z,4.07
2022-09-23T02:59:42.220Z,4.08
2022-09-23T03:01:44.114Z,4.08
2022-09-23T03:05:47.009Z,4.07
2022-09-23T03:07:48.466Z,4.08
2022-09-23T03:11:52.071Z,4.07
2022-09-23T03:15:55.278Z,4.07
2022-09-23T03:17:57.263Z,4.07
2022-09-23T03:19:58.796Z,4.07
2022-09-23T03:22:00.613Z,4.07
2022-09-23T03:26:03.569Z,4.07
2022-09-23T03:28:14.129Z,4.07
2022-09-23T03:30:06.804Z,4.07
2022-09-23T03:32:08.580Z,4.07
2022-09-23T03:34:10.396Z,4.07
2022-09-23T03:36:12.171Z,4.07
2022-09-23T03:40:15.055Z,4.07
2022-09-23T03:44:18.147Z,4.06
2022-09-23T03:48:21.202Z,4.07
2022-09-23T03:50:23.185Z,4.07
2022-09-23T03:52:25.137Z,4.07
2022-09-23T03:54:26.775Z,4.07
2022-09-23T04:00:31.378Z,4.06
2022-09-23T04:02:32.699Z,4.06
2022-09-23T04:08:36.818Z,4.06
2022-09-23T04:10:38.044Z,4.06
2022-09-23T04:12:40.064Z,4.06
2022-09-23T04:14:41.387Z,4.06
2022-09-23T04:16:43.283Z,4.06
2022-09-23T04:18:44.446Z,4.06
2022-09-23T04:20:45.942Z,4.06
2022-09-23T04:24:49.315Z,4.06
2022-09-23T04:26:51.170Z,4.06
2022-09-23T04:28:52.845Z,4.06
2022-09-23T04:30:53.901Z,4.06
2022-09-23T04:32:55.253Z,4.06
2022-09-23T04:34:56.800Z,4.06
2022-09-23T04:36:58.334Z,4.06
2022-09-23T04:41:01.428Z,4.06
2022-09-23T04:43:02.712Z,4.06
2022-09-23T04:45:04.728Z,4.06
2022-09-23T04:47:06.185Z,4.06
2022-09-23T04:49:07.568Z,4.06
2022-09-23T04:51:08.848Z,4.06
2022-09-23T04:53:10.811Z,4.06
2022-09-23T04:57:13.827Z,4.06
2022-09-23T04:59:15.695Z,4.06
2022-09-23T05:01:17.001Z,4.06
2022-09-23T05:03:18.069Z,4.06
2022-09-23T05:07:20.898Z,4.06
2022-09-23T05:09:22.368Z,4.06
2022-09-23T05:11:23.692Z,4.05
2022-09-23T05:13:25.441Z,4.06
2022-09-23T05:15:26.897Z,4.06
2022-09-23T05:17:28.772Z,4.06
2022-09-23T05:19:30.262Z,4.05
2022-09-23T05:23:33.684Z,4.05
2022-09-23T05:25:38.280Z,4.06
2022-09-23T05:27:36.847Z,4.06
2022-09-23T05:29:38.098Z,4.06
2022-09-23T05:31:39.303Z,4.05
2022-09-23T05:33:40.947Z,4.05
2022-09-23T05:35:42.203Z,4.05
2022-09-23T05:39:45.546Z,4.05
2022-09-23T05:41:47.139Z,4.05
2022-09-23T05:43:49.040Z,4.05
2022-09-23T05:45:50.961Z,4.05
2022-09-23T05:49:59.837Z,4.05
2022-09-23T05:51:55.423Z,4.05
2022-09-23T05:53:56.802Z,4.05
2022-09-23T05:55:58.167Z,4.05
2022-09-23T05:57:59.919Z,4.05
2022-09-23T06:00:01.659Z,4.05
2022-09-23T06:02:03.490Z,4.05
2022-09-23T06:06:05.897Z,4.05
2022-09-23T06:08:07.339Z,4.05
2022-09-23T06:10:08.657Z,4.06
2022-09-23T06:12:09.931Z,4.05
2022-09-23T06:14:11.448Z,4.05
2022-09-23T06:16:13.066Z,4.05
2022-09-23T06:18:14.579Z,4.05
2022-09-23T06:22:18.192Z,4.05
2022-09-23T06:23:02.505Z,4.05
2022-09-23T06:25:03.877Z,4.06
2022-09-23T06:29:07.558Z,4.06
2022-09-23T06:33:10.580Z,4.06
2022-09-23T06:35:19.488Z,4.06
2022-09-23T06:37:18.460Z,4.06
2022-09-23T06:39:15.011Z,4.07
2022-09-23T06:43:17.405Z,4.07
2022-09-23T06:45:18.950Z,4.07
2022-09-23T06:47:20.039Z,4.06
2022-09-23T06:49:21.996Z,4.07
2022-09-23T06:51:23.138Z,4.07
2022-09-23T06:53:24.433Z,4.08
2022-09-23T06:55:25.927Z,4.08
2022-09-23T06:59:28.546Z,4.09
2022-09-23T07:01:29.685Z,4.1
2022-09-23T07:05:32.996Z,4.09
2022-09-23T07:07:34.416Z,4.11
2022-09-23T07:09:35.720Z,4.11
2022-09-23T07:11:37.477Z,4.1
2022-09-23T07:13:38.948Z,4.12
2022-09-23T07:15:40.597Z,4.13
2022-09-23T07:17:42.466Z,4.14
2022-09-23T07:21:44.648Z,4.14
2022-09-23T07:25:48.088Z,4.14
2022-09-23T07:27:50.002Z,4.15
2022-09-23T07:29:51.593Z,4.15
2022-09-23T07:31:53.132Z,4.16
2022-09-23T07:33:53.799Z,4.16
2022-09-23T07:35:55.019Z,4.16
2022-09-23T07:39:57.086Z,4.16
2022-09-23T07:41:58.502Z,4.16
2022-09-23T07:44:00.222Z,4.17
2022-09-23T07:46:02.403Z,4.17
2022-09-23T07:48:04.236Z,4.17
2022-09-23T07:50:05.623Z,4.17
2022-09-23T07:54:08.219Z,4.17
2022-09-23T07:58:10.634Z,4.18
2022-09-23T08:00:11.957Z,4.18
2022-09-23T08:02:13.594Z,4.18
2022-09-23T08:04:14.653Z,4.19
2022-09-23T08:06:15.860Z,4.19
2022-09-23T08:08:16.953Z,4.19
2022-09-23T08:10:17.947Z,4.19
2022-09-23T08:14:21.065Z,4.19
2022-09-23T08:16:22.818Z,4.19
2022-09-23T08:18:24.249Z,4.19
2022-09-23T08:20:25.197Z,4.19
2022-09-23T08:24:27.716Z,4.2
2022-09-23T08:26:28.636Z,4.19
2022-09-23T08:30:31.674Z,4.2
2022-09-23T08:32:33.398Z,4.2
2022-09-23T08:34:35.090Z,4.2
2022-09-23T08:38:38.629Z,4.2
2022-09-23T08:40:39.735Z,4.2
2022-09-23T08:42:41.967Z,4.2
2022-09-23T08:46:44.661Z,4.2
2022-09-23T08:48:45.570Z,4.2
2022-09-23T08:50:46.923Z,4.2
2022-09-23T08:52:48.584Z,4.2
2022-09-23T08:56:51.212Z,4.2
2022-09-23T08:58:52.711Z,4.2
2022-09-23T09:00:53.694Z,4.2
2022-09-23T09:04:55.753Z,4.2
2022-09-23T09:07:03.550Z,4.2
2022-09-23T09:08:58.380Z,4.2
2022-09-23T09:11:01.000Z,4.2
2022-09-23T09:13:02.034Z,4.2
2022-09-23T09:15:03.062Z,4.2
2022-09-23T09:17:04.013Z,4.21
2022-09-23T09:19:05.040Z,4.19
2022-09-23T09:23:08.028Z,4.19
2022-09-23T09:25:09.532Z,4.19
2022-09-23T09:27:11.304Z,4.19
2022-09-23T09:29:31.076Z,4.19
2022-09-23T09:33:14.225Z,4.19
2022-09-23T09:35:15.189Z,4.18
2022-09-23T09:39:17.572Z,4.19
2022-09-23T09:41:18.793Z,4.19
2022-09-23T09:43:20.124Z,4.18
2022-09-23T09:47:23.054Z,4.18
2022-09-23T09:51:26.371Z,4.18
2022-09-23T09:53:27.409Z,4.18
2022-09-23T09:55:28.824Z,4.18
2022-09-23T09:57:32.033Z,4.18
2022-09-23T09:59:31.890Z,4.18
2022-09-23T10:01:33.124Z,4.18
2022-09-23T10:03:34.393Z,4.18
2022-09-23T10:07:37.395Z,4.18
2022-09-23T10:11:40.110Z,4.18
2022-09-23T10:13:41.728Z,4.18
2022-09-23T10:15:44.853Z,4.18
2022-09-23T10:17:45.302Z,4.18
2022-09-23T10:21:48.201Z,4.17
2022-09-23T10:23:49.964Z,4.18
2022-09-23T10:25:50.975Z,4.17
2022-09-23T10:27:52.172Z,4.18
2022-09-23T10:31:55.059Z,4.17
2022-09-23T10:33:55.989Z,4.17
2022-09-23T10:37:58.206Z,4.17
2022-09-23T10:39:59.745Z,4.17
2022-09-23T10:42:00.592Z,4.17
2022-09-23T10:44:01.785Z,4.17
2022-09-23T10:46:03.511Z,4.17
2022-09-23T10:48:05.022Z,4.17
2022-09-23T10:50:06.545Z,4.17
2022-09-23T10:52:07.891Z,4.17
2022-09-23T10:54:08.903Z,4.17
2022-09-23T10:56:10.227Z,4.17
2022-09-23T10:58:11.693Z,4.17
2022-09-23T11:00:12.673Z,4.17
2022-09-23T11:04:16.286Z,4.17
2022-09-23T11:06:16.940Z,4.17
2022-09-23T11:08:18.408Z,4.17
2022-09-23T11:12:20.401Z,4.17
2022-09-23T11:14:22.113Z,4.17
2022-09-23T11:16:23.602Z,4.17
2022-09-23T11:18:24.588Z,4.17
2022-09-23T11:20:26.391Z,4.17
2022-09-23T11:22:28.106Z,4.17
2022-09-23T11:24:29.405Z,4.17
2022-09-23T11:26:33.052Z,4.17
2022-09-23T11:30:33.166Z,4.17
2022-09-23T11:32:34.368Z,4.17
2022-09-23T11:36:36.704Z,4.17
2022-09-23T11:38:37.574Z,4.17
2022-09-23T11:40:40.973Z,4.17
2022-09-23T11:42:41.043Z,4.16
2022-09-23T11:46:44.068Z,4.17
2022-09-23T11:48:45.604Z,4.16
2022-09-23T11:50:47.324Z,4.16
2022-09-23T11:52:48.577Z,4.17
2022-09-23T11:56:51.450Z,4.16
2022-09-23T11:58:54.325Z,4.16
2022-09-23T12:03:03.156Z,4.16
2022-09-23T12:04:57.952Z,4.16
2022-09-23T12:06:57.235Z,4.16
2022-09-23T12:08:58.984Z,4.16
2022-09-23T12:13:01.319Z,4.16
2022-09-23T12:15:02.920Z,4.16
2022-09-23T12:17:04.048Z,4.16
2022-09-23T12:19:05.209Z,4.16
2022-09-23T12:21:06.746Z,4.16
2022-09-23T12:25:08.935Z,4.16
2022-09-23T12:29:11.818Z,4.16
2022-09-23T12:31:13.222Z,4.16
2022-09-23T12:33:14.689Z,4.16
2022-09-23T12:35:15.481Z,4.16
2022-09-23T12:37:17.268Z,4.16
2022-09-23T12:39:18.506Z,4.16
2022-09-23T12:41:20.226Z,4.16
2022-09-23T12:45:23.281Z,4.16
2022-09-23T12:47:24.197Z,4.16
2022-09-23T12:49:25.899Z,4.16
2022-09-23T12:51:27.454Z,4.16
2022-09-23T12:55:29.885Z,4.16
2022-09-23T12:57:30.951Z,4.16
2022-09-23T13:01:33.576Z,4.15
2022-09-23T13:03:34.485Z,4.16
2022-09-23T13:05:35.297Z,4.15
2022-09-23T13:07:37.023Z,4.15
2022-09-23T13:08:30.775Z,4.15
2022-09-23T13:10:31.809Z,4.15
2022-09-23T13:12:32.742Z,4.15
2022-09-23T13:14:33.901Z,4.16
2022-09-23T13:16:35.076Z,4.15
2022-09-23T13:18:36.111Z,4.15
2022-09-23T13:22:38.180Z,4.15
2022-09-23T13:24:39.418Z,4.15
2022-09-23T13:26:40.295Z,4.15
2022-09-23T13:28:42.091Z,4.15
2022-09-23T13:32:44.920Z,4.15
2022-09-23T13:34:45.881Z,4.15
2022-09-23T13:38:48.758Z,4.15
2022-09-23T13:40:50.203Z,4.15
2022-09-23T13:42:51.820Z,4.15
2022-09-23T13:44:53.592Z,4.15
2022-09-23T13:46:54.635Z,4.15
2022-09-23T13:48:56.159Z,4.15
2022-09-23T13:50:57.512Z,4.14
2022-09-23T13:52:59.706Z,4.15
2022-09-23T13:55:00.740Z,4.15
2022-09-23T13:57:02.475Z,4.14
2022-09-23T13:59:03.353Z,4.14
2022-09-23T14:01:04.424Z,4.14
2022-09-23T14:05:06.684Z,4.15
2022-09-23T14:07:08.194Z,4.14
2022-09-23T14:09:09.859Z,4.14
2022-09-23T14:11:10.895Z,4.14
2022-09-23T14:15:13.189Z,4.14
2022-09-23T14:17:14.155Z,4.14
2022-09-23T14:19:15.852Z,4.14
2022-09-23T14:21:17.300Z,4.14
2022-09-23T14:23:19.085Z,4.17
2022-09-23T14:25:20.046Z,4.17
2022-09-23T14:27:21.921Z,4.18
2022-09-23T14:31:25.099Z,4.18
2022-09-23T14:33:26.294Z,4.18
2022-09-23T14:35:27.502Z,4.19
2022-09-23T14:37:29.154Z,4.19
2022-09-23T14:41:31.843Z,4.19
2022-09-23T14:43:33.587Z,4.19
2022-09-23T14:47:35.496Z,4.19
2022-09-23T14:49:37.110Z,4.19
2022-09-23T14:51:38.433Z,4.19
2022-09-23T14:53:39.377Z,4.2
2022-09-23T14:55:40.453Z,4.19
2022-09-23T14:57:42.091Z,4.2
2022-09-23T14:59:43.648Z,4.19
2022-09-23T15:03:45.715Z,4.2
2022-09-23T15:05:47.041Z,4.2
2022-09-23T15:07:48.465Z,4.2
2022-09-23T15:09:49.959Z,4.2
2022-09-23T15:11:51.274Z,4.2
2022-09-23T15:13:52.625Z,4.2
2022-09-23T15:15:54.255Z,4.2
2022-09-23T15:19:57.230Z,4.2
2022-09-23T15:21:58.825Z,4.2
2022-09-23T15:24:00.043Z,4.2
2022-09-23T15:26:01.620Z,4.2
2022-09-23T15:28:02.866Z,4.2
2022-09-23T15:30:04.752Z,4.2
2022-09-23T15:32:06.189Z,4.2
2022-09-23T15:36:08.686Z,4.19
2022-09-23T15:38:10.429Z,4.19
2022-09-23T15:40:11.963Z,4.19
2022-09-23T15:42:13.097Z,4.19
2022-09-23T15:46:15.976Z,4.19
2022-09-23T15:48:17.632Z,4.19
2022-09-23T15:50:18.482Z,4.19
2022-09-23T15:52:19.603Z,4.19
2022-09-23T15:54:21.340Z,4.19
2022-09-23T15:58:24.474Z,4.19
2022-09-23T16:02:27.527Z,4.19
2022-09-23T16:04:29.007Z,4.19
2022-09-23T16:06:30.568Z,4.18
2022-09-23T16:08:31.550Z,4.19
2022-09-23T16:10:32.683Z,4.18
2022-09-23T16:12:33.878Z,4.18
2022-09-23T16:14:35.508Z,4.19
2022-09-23T16:18:37.680Z,4.18
2022-09-23T16:20:39.220Z,4.18
2022-09-23T16:22:40.995Z,4.18
2022-09-23T16:24:42.746Z,4.18
2022-09-23T16:28:45.031Z,4.18
2022-09-23T16:30:45.908Z,4.18
2022-09-23T16:32:47.706Z,4.18
2022-09-23T16:34:49.556Z,4.18
2022-09-23T16:36:51.122Z,4.18
2022-09-23T16:38:52.312Z,4.18
2022-09-23T16:40:54.251Z,4.18
2022-09-23T16:44:57.477Z,4.18
2022-09-23T16:46:58.378Z,4.17
2022-09-23T16:51:00.521Z,4.18
2022-09-23T16:53:02.331Z,4.17
2022-09-23T16:55:03.685Z,4.18
2022-09-23T16:57:04.976Z,4.18
2022-09-23T17:01:08.107Z,4.17
2022-09-23T17:03:09.406Z,4.17
2022-09-23T17:05:10.750Z,4.17
2022-09-23T17:07:11.708Z,4.17
2022-09-23T17:11:14.275Z,4.17
2022-09-23T17:13:15.502Z,4.17
2022-09-23T17:15:16.663Z,4.17
2022-09-23T17:17:18.222Z,4.17
2022-09-23T17:21:20.577Z,4.17
2022-09-23T17:23:21.578Z,4.17
2022-09-23T17:27:24.520Z,4.17
2022-09-23T17:29:26.379Z,4.17
2022-09-23T17:31:27.535Z,4.17
2022-09-23T17:33:28.398Z,4.17
2022-09-23T17:37:30.986Z,4.17
2022-09-23T17:39:32.248Z,4.17
2022-09-23T17:41:34.066Z,4.17
2022-09-23T17:43:35.264Z,4.17
2022-09-23T17:45:36.412Z,4.17
2022-09-23T17:47:41.388Z,4.17
2022-09-23T17:49:39.312Z,4.17
2022-09-23T17:51:40.706Z,4.17
2022-09-23T17:53:42.601Z,4.17
2022-09-23T17:55:43.829Z,4.17
2022-09-23T17:59:47.037Z,4.17
2022-09-23T18:01:48.063Z,4.17
2022-09-23T18:03:49.036Z,4.16
2022-09-23T18:05:50.644Z,4.16
2022-09-23T18:09:54.205Z,4.16
2022-09-23T18:11:55.369Z,4.16
2022-09-23T18:15:58.443Z,4.16
2022-09-23T18:17:59.581Z,4.16
2022-09-23T18:20:00.588Z,4.16
2022-09-23T18:22:02.194Z,4.16
2022-09-23T18:24:28.456Z,4.16
2022-09-23T18:26:05.097Z,4.16
2022-09-23T18:28:06.288Z,4.16
2022-09-23T18:30:07.925Z,4.16
2022-09-23T18:32:13.408Z,4.16
2022-09-23T18:34:10.234Z,4.16
2022-09-23T18:36:12.026Z,4.16
2022-09-23T18:38:13.043Z,4.16
2022-09-23T18:40:14.811Z,4.16
2022-09-23T18:42:15.958Z,4.16
2022-09-23T18:44:17.778Z,4.16
2022-09-23T18:46:18.889Z,4.16
2022-09-23T18:48:20.410Z,4.16
2022-09-23T18:50:21.830Z,4.16
2022-09-23T18:52:23.221Z,4.16
2022-09-23T18:56:25.933Z,4.16
2022-09-23T18:58:27.841Z,4.16
2022-09-23T19:00:29.285Z,4.15
2022-09-23T19:04:32.552Z,4.16
2022-09-23T19:08:35.729Z,4.16
2022-09-23T19:10:37.331Z,4.16
2022-09-23T19:12:38.537Z,4.16
2022-09-23T19:14:40.268Z,4.16
2022-09-23T19:16:41.610Z,4.15
2022-09-23T19:18:42.765Z,4.16
2022-09-23T19:20:44.320Z,4.15
2022-09-23T19:24:47.270Z,4.16
2022-09-23T19:26:48.437Z,4.15
2022-09-23T19:28:49.715Z,4.15
2022-09-23T19:30:51.499Z,4.15
2022-09-23T19:34:55.039Z,4.15
2022-09-23T19:36:56.870Z,4.15
2022-09-23T19:38:58.563Z,4.15
2022-09-23T19:41:00.502Z,4.15
2022-09-23T19:43:02.207Z,4.15
2022-09-23T19:47:04.519Z,4.15
2022-09-23T19:51:06.773Z,4.15
2022-09-23T19:53:08.675Z,4.15
2022-09-23T19:55:54.391Z,4.14
2022-09-23T19:57:55.762Z,4.15
2022-09-23T20:01:58.095Z,4.15
2022-09-23T20:03:59.855Z,4.14
2022-09-23T20:06:00.781Z,4.15
2022-09-23T20:08:01.794Z,4.14
2022-09-23T20:10:03.355Z,4.14
2022-09-23T20:12:05.040Z,4.14
2022-09-23T20:14:06.807Z,4.14
2022-09-23T20:18:09.936Z,4.14
2022-09-23T20:20:11.092Z,4.14
2022-09-23T20:22:12.058Z,4.14
2022-09-23T20:24:13.065Z,4.14
2022-09-23T20:28:15.643Z,4.14
2022-09-23T20:30:16.666Z,4.14
2022-09-23T20:34:19.820Z,4.14
2022-09-23T20:36:20.903Z,4.14
2022-09-23T20:38:22.606Z,4.14
2022-09-23T20:40:24.376Z,4.14
2022-09-23T20:42:25.691Z,4.14
2022-09-23T20:44:26.992Z,4.14
2022-09-23T20:46:28.689Z,4.14
2022-09-23T20:48:29.659Z,4.14
2022-09-23T20:50:30.973Z,4.14
2022-09-23T20:52:32.348Z,4.14
2022-09-23T20:54:34.243Z,4.14
2022-09-23T20:56:35.507Z,4.14
2022-09-23T20:58:37.260Z,4.14
2022-09-23T21:00:38.426Z,4.14
2022-09-23T21:02:39.877Z,4.13
2022-09-23T21:04:41.075Z,4.14
2022-09-23T21:06:42.201Z,4.14
2022-09-23T21:08:43.953Z,4.14
2022-09-23T21:10:45.865Z,4.14
2022-09-23T21:12:47.733Z,4.14
2022-09-23T21:16:49.876Z,4.14
2022-09-23T21:18:51.025Z,4.14
2022-09-23T21:20:52.076Z,4.14
2022-09-23T21:22:53.948Z,4.13
2022-09-23T21:26:57.101Z,4.13
2022-09-23T21:28:58.560Z,4.14
2022-09-23T21:31:00.208Z,4.13
2022-09-23T21:33:01.196Z,4.13
2022-09-23T21:35:02.543Z,4.13
2022-09-23T21:37:04.478Z,4.13
2022-09-23T21:39:06.047Z,4.13
2022-09-23T21:43:09.544Z,4.13
2022-09-23T21:45:10.507Z,4.13
2022-09-23T21:49:13.987Z,4.13
2022-09-23T21:51:15.622Z,4.13
2022-09-23T21:53:17.308Z,4.13
2022-09-23T21:55:18.266Z,4.13
2022-09-23T21:57:19.714Z,4.13
2022-09-23T21:59:21.277Z,4.13
2022-09-23T22:01:23.122Z,4.13
2022-09-23T22:03:24.505Z,4.13
2022-09-23T22:05:26.144Z,4.12
2022-09-23T22:09:29.790Z,4.12
2022-09-23T22:11:31.457Z,4.13
2022-09-23T22:15:34.742Z,4.13
2022-09-23T22:17:36.299Z,4.12
2022-09-23T22:19:39.349Z,4.12
2022-09-23T22:21:38.972Z,4.13
2022-09-23T22:23:40.777Z,4.12
2022-09-23T22:25:42.575Z,4.12
2022-09-23T22:27:43.603Z,4.12
2022-09-23T22:29:44.932Z,4.12
2022-09-23T22:31:46.712Z,4.12
2022-09-23T22:35:49.534Z,4.12
2022-09-23T22:37:51.208Z,4.12
2022-09-23T22:39:52.407Z,4.12
2022-09-23T22:41:53.906Z,4.12
2022-09-23T22:43:55.718Z,4.12
2022-09-23T22:45:56.653Z,4.12
2022-09-23T22:47:57.934Z,4.12
2022-09-23T22:52:00.768Z,4.12
2022-09-23T22:54:02.609Z,4.12
2022-09-23T22:58:21.500Z,4.12
2022-09-23T23:00:06.943Z,4.12
2022-09-23T23:02:08.067Z,4.12
2022-09-23T23:04:10.043Z,4.12
2022-09-23T23:06:11.629Z,4.12
2022-09-23T23:08:13.240Z,4.12
2022-09-23T23:10:15.028Z,4.12
2022-09-23T23:12:16.822Z,4.12
2022-09-23T23:14:18.287Z,4.12
2022-09-23T23:16:19.341Z,4.12
2022-09-23T23:18:20.497Z,4.12
2022-09-23T23:20:22.407Z,4.12
2022-09-23T23:24:24.980Z,4.12
2022-09-23T23:26:26.694Z,4.11
2022-09-23T23:28:27.908Z,4.11
2022-09-23T23:30:29.354Z,4.12
2022-09-23T23:34:31.837Z,4.11
2022-09-23T23:36:33.012Z,4.11
2022-09-23T23:38:34.524Z,4.11
2022-09-23T23:40:35.955Z,4.11
2022-09-23T23:42:37.258Z,4.11
2022-09-23T23:44:39.085Z,4.11
2022-09-23T23:46:40.656Z,4.11
2022-09-23T23:50:43.411Z,4.11
2022-09-23T23:52:44.723Z,4.11
2022-09-23T23:54:46.417Z,4.11
2022-09-23T23:56:48.325Z,4.11
2022-09-23T23:58:49.430Z,4.11
